Star Epsilon — V7NZ7 — position and weather

sailwx.info

Track history (hours):
 
Tides and Currents Weather Stations Pressure Air Temp Water Temp Dewpoint Dewpoint Depression Visibility Wind Speed Wind Dir Waves Ship Positions

Star Epsilon

Last reported at 2016-Dec-09 07:27 UTC. Time now 2016-Dec-09 07:52 UTC.
Position N 39°03' E 117°46'.

Length 189 m; draft 6.7 m.

Type: Ship. MMSI: 538003043.

Date/timePositionNaut miles runAvg speedWind from/ knotsBaromVisibWave heightAir tempDewpointWater temp
2016-Dec-09 07:27N 39°03' E 117°46'0 0.0
2016-Dec-09 06:33N 39°03' E 117°46'0 0.0
2016-Dec-09 05:33N 39°03' E 117°46'0 0.0
2016-Dec-09 04:33N 39°03' E 117°46'0 0.0
2016-Dec-09 03:33N 39°03' E 117°46'0 0.0
2016-Dec-09 02:33N 39°03' E 117°46'0 0.0
2016-Dec-09 01:33N 39°03' E 117°46'0 0.0
2016-Dec-09 00:33N 39°03' E 117°46'0 0.0
2016-Dec-08 23:33N 39°03' E 117°46'0 0.0
2016-Dec-08 20:27N 39°03' E 117°46'0 0.0
2016-Dec-08 19:27N 39°03' E 117°46'0 0.0
2016-Dec-08 18:33N 39°03' E 117°46'0 0.0
2016-Dec-08 17:09N 39°03' E 117°46'0 0.0
2016-Dec-08 16:33N 39°03' E 117°46'0 0.0
2016-Dec-08 15:33N 39°03' E 117°46'0 0.0
2016-Dec-08 13:21N 39°03' E 117°46'0 0.0
2016-Dec-08 12:15N 39°03' E 117°46'0 0.0
2016-Dec-08 11:33N 39°03' E 117°46'0 0.0
2016-Dec-08 10:27N 39°03' E 117°46'0 0.0
2016-Dec-08 09:33N 39°03' E 117°46'0 0.0
2016-Dec-08 08:27N 39°03' E 117°46'0 0.0
2016-Dec-08 07:21N 39°03' E 117°46'0 0.0
2016-Dec-08 06:33N 39°03' E 117°46'0 0.0
2016-Dec-08 05:33N 39°03' E 117°46'0 0.0
2016-Dec-08 04:33N 39°03' E 117°46'5 5.4
2016-Dec-08 03:33N 38°58' E 117°49'1110.8
2016-Dec-08 02:33N 38°56' E 118°03'7 3.5
2016-Dec-08 00:25N 38°55' E 118°12'0 0.0
2016-Dec-07 21:19N 38°55' E 118°12'0 0.0
2016-Dec-07 16:19N 38°55' E 118°12'0 0.0
2016-Dec-07 14:07N 38°55' E 118°12'0 0.0
2016-Dec-06 20:25N 38°55' E 118°12'0 0.0
2016-Dec-05 22:07N 38°55' E 118°12'0 0.0
2016-Dec-05 21:31N 38°55' E 118°12'0 0.1
2016-Dec-05 20:31N 38°55' E 118°12'0 0.1
2016-Dec-05 19:31N 38°55' E 118°12'0 0.1
2016-Dec-05 15:25N 38°55' E 118°12'0 0.0
2016-Dec-05 14:25N 38°55' E 118°12'0 0.0
2016-Dec-05 13:25N 38°55' E 118°12'0 0.0
2016-Dec-05 10:19N 38°55' E 118°12'0 0.0
2016-Dec-05 07:31N 38°55' E 118°12'0 0.0
2016-Dec-05 03:19N 38°55' E 118°12'0 0.0
2016-Dec-05 02:29N 38°55' E 118°12'5 5.1
2016-Dec-05 01:32N 38°52' E 118°18'10 0.4
2016-Dec-03 23:11N 38°58' E 118°28'0 0.0
2016-Dec-03 16:25N 38°58' E 118°28'2 0.1
2016-Dec-03 00:21N 38°57' E 118°28'6 7.5
2016-Dec-02 23:33N 38°51' E 118°31'10110.1
2016-Dec-02 13:33N 38°37' E 120°39'1312.7
2016-Dec-02 12:34N 38°35' E 120°55'14511.9
2016-Dec-02 00:21N 36°54' E 123°06'34510.8
2016-Nov-30 16:31N 31°15' E 121°46'9 9.8
2016-Nov-30 15:33N 31°21' E 121°38'9 9.5
2016-Nov-30 14:33N 31°26' E 121°29'1212.3
2016-Nov-30 13:34N 31°35' E 121°18'1514.8
2016-Nov-30 12:33N 31°45' E 121°05'3611.8
2016-Nov-30 09:30N 32°02' E 120°28'1210.6
2016-Nov-30 08:23N 31°56' E 120°16'8 9.6
2016-Nov-30 07:31N 31°57' E 120°06'  
Track history (hours):
 
Tides and Currents Weather Stations Pressure Air Temp Water Temp Dewpoint Dewpoint Depression Visibility Wind Speed Wind Dir Waves Ship Positions

Star Epsilon

Last reported at 2016-Dec-09 07:27 UTC. Time now 2016-Dec-09 07:52 UTC.
Position N 39°03' E 117°46'.

Length 189 m; draft 6.7 m.

Type: Ship. MMSI: 538003043.

Date/timePositionNaut miles runAvg speedWind from/ knotsBaromVisibWave heightAir tempDewpointWater temp
2016-Dec-09 07:27N 39°03' E 117°46'0 0.0
2016-Dec-09 06:33N 39°03' E 117°46'0 0.0
2016-Dec-09 05:33N 39°03' E 117°46'0 0.0
2016-Dec-09 04:33N 39°03' E 117°46'0 0.0
2016-Dec-09 03:33N 39°03' E 117°46'0 0.0
2016-Dec-09 02:33N 39°03' E 117°46'0 0.0
2016-Dec-09 01:33N 39°03' E 117°46'0 0.0
2016-Dec-09 00:33N 39°03' E 117°46'0 0.0
2016-Dec-08 23:33N 39°03' E 117°46'0 0.0
2016-Dec-08 20:27N 39°03' E 117°46'0 0.0
2016-Dec-08 19:27N 39°03' E 117°46'0 0.0
2016-Dec-08 18:33N 39°03' E 117°46'0 0.0
2016-Dec-08 17:09N 39°03' E 117°46'0 0.0
2016-Dec-08 16:33N 39°03' E 117°46'0 0.0
2016-Dec-08 15:33N 39°03' E 117°46'0 0.0
2016-Dec-08 13:21N 39°03' E 117°46'0 0.0
2016-Dec-08 12:15N 39°03' E 117°46'0 0.0
2016-Dec-08 11:33N 39°03' E 117°46'0 0.0
2016-Dec-08 10:27N 39°03' E 117°46'0 0.0
2016-Dec-08 09:33N 39°03' E 117°46'0 0.0
2016-Dec-08 08:27N 39°03' E 117°46'0 0.0
2016-Dec-08 07:21N 39°03' E 117°46'0 0.0
2016-Dec-08 06:33N 39°03' E 117°46'0 0.0
2016-Dec-08 05:33N 39°03' E 117°46'0 0.0
2016-Dec-08 04:33N 39°03' E 117°46'5 5.4
2016-Dec-08 03:33N 38°58' E 117°49'1110.8
2016-Dec-08 02:33N 38°56' E 118°03'7 3.5
2016-Dec-08 00:25N 38°55' E 118°12'0 0.0
2016-Dec-07 21:19N 38°55' E 118°12'0 0.0
2016-Dec-07 16:19N 38°55' E 118°12'0 0.0
2016-Dec-07 14:07N 38°55' E 118°12'0 0.0
2016-Dec-06 20:25N 38°55' E 118°12'0 0.0
2016-Dec-05 22:07N 38°55' E 118°12'0 0.0
2016-Dec-05 21:31N 38°55' E 118°12'0 0.1
2016-Dec-05 20:31N 38°55' E 118°12'0 0.1
2016-Dec-05 19:31N 38°55' E 118°12'0 0.1
2016-Dec-05 15:25N 38°55' E 118°12'0 0.0
2016-Dec-05 14:25N 38°55' E 118°12'0 0.0
2016-Dec-05 13:25N 38°55' E 118°12'0 0.0
2016-Dec-05 10:19N 38°55' E 118°12'0 0.0
2016-Dec-05 07:31N 38°55' E 118°12'0 0.0
2016-Dec-05 03:19N 38°55' E 118°12'0 0.0
2016-Dec-05 02:29N 38°55' E 118°12'5 5.1
2016-Dec-05 01:32N 38°52' E 118°18'10 0.4
2016-Dec-03 23:11N 38°58' E 118°28'0 0.0
2016-Dec-03 16:25N 38°58' E 118°28'2 0.1
2016-Dec-03 00:21N 38°57' E 118°28'6 7.5
2016-Dec-02 23:33N 38°51' E 118°31'10110.1
2016-Dec-02 13:33N 38°37' E 120°39'1312.7
2016-Dec-02 12:34N 38°35' E 120°55'14511.9
2016-Dec-02 00:21N 36°54' E 123°06'34510.8
2016-Nov-30 16:31N 31°15' E 121°46'9 9.8
2016-Nov-30 15:33N 31°21' E 121°38'9 9.5
2016-Nov-30 14:33N 31°26' E 121°29'1212.3
2016-Nov-30 13:34N 31°35' E 121°18'1514.8
2016-Nov-30 12:33N 31°45' E 121°05'3611.8
2016-Nov-30 09:30N 32°02' E 120°28'1210.6
2016-Nov-30 08:23N 31°56' E 120°16'8 9.6
2016-Nov-30 07:31N 31°57' E 120°06'  

Dump ship's entire track history